Lakehills, Texas
Current Conditions -  °F | °C
As of 9:15 AM on Saturday 22 Nov 2014 (Local Time) from K5C1 Reporting Station
NA  
Wind Chill: 64°   Ceiling: NA
Heat Index: 64°   Visibility: 3mi
Dew Point: 63°   Wind: 16mph
Humidity: 94%   Direction: 140°SE
Pressure: 29.96"   Gusts: NA
Location:  29.6773°N, 98.9°W
Report Text: K5C1 221515Z AUTO 14014KT 3SM 18/17 A2996 RMK AO1 P0002
Loading
Personal Weather Stations






























Interactive Weather Map New forecast layout! Learn more

10-Day Weather Forecast

Advertisements
Track Severe Weather on mobile